General Aviation Weather

Text Reports

Enter one or more of the following location identifiers separated by a space:

Zip Code, Four-Character ICAO or Three-Character IATA airport codes.

METAR - Aviation Routine Weather Report
KHRI - Hermiston, Oregon
Updated at 7:53 AM GMT on May 04, 2015 (12:53 AM PDT):
METAR KHRI 040753Z AUTO 15004KT 10SM CLR 08/01 A2984 RMK AO2 SLP102 T00780006 402500011
TAF - Terminal Area Forecast
KHRI - Hermiston, Oregon
Updated at 7:53 AM GMT on May 04, 2015 (12:53 AM PDT):
No TAF is currently available for this location.
Decoded:
No decoded TAF is available.
PIREP - Pilot Weather Report
KHRI - Hermiston, Oregon
Updated at 7:53 AM GMT on May 04, 2015 (12:53 AM PDT):
No PIREP is currently available for this location.
AIRMET - Airmens Meteorological Information
KHRI - Hermiston, Oregon
Updated at 7:53 AM GMT on May 04, 2015 (12:53 AM PDT):
No AIRMET is currently available for this location.
SIGMET - Significant Meteorological Information
KHRI - Hermiston, Oregon
Updated at 7:53 AM GMT on May 04, 2015 (12:53 AM PDT):
No SIGMET is currently available for this location.
NOTAM - Notice to Airmen
KHRI - Hermiston, Oregon
Updated at 7:53 AM GMT on May 04, 2015 (12:53 AM PDT):
No NOTAM is currently available for this location.
Forecast Area
KHRI - Hermiston, Oregon
Updated at 7:53 AM GMT on May 04, 2015 (12:53 AM PDT):
No NOTAM is currently available for this location.
Aviation Weather Maps